sensor_id;sensor_type;location;lat;lon;timestamp;P1;durP1;ratioP1;P2;durP2;ratioP2
51298;SDS011;37382;45.192;9.790;2022-10-17T04:08:24;51.22;;;36.38;;
51298;SDS011;37382;45.192;9.790;2022-10-17T04:14:02;57.92;;;42.50;;
51298;SDS011;37382;45.192;9.790;2022-10-17T04:16:30;58.72;;;45.17;;
51298;SDS011;37382;45.192;9.790;2022-10-17T04:19:01;62.90;;;46.10;;
51298;SDS011;37382;45.192;9.790;2022-10-17T04:21:34;71.03;;;46.25;;
51298;SDS011;37382;45.192;9.790;2022-10-17T04:24:05;63.50;;;45.67;;
51298;SDS011;37382;45.192;9.790;2022-10-17T04:27:07;65.50;;;46.42;;
51298;SDS011;37382;45.192;9.790;2022-10-17T04:29:38;66.43;;;50.13;;
51298;SDS011;37382;45.192;9.790;2022-10-17T04:32:13;62.65;;;47.45;;
51298;SDS011;37382;45.192;9.790;2022-10-17T04:34:51;63.55;;;46.80;;
51298;SDS011;37382;45.192;9.790;2022-10-17T04:37:21;67.18;;;50.20;;
51298;SDS011;37382;45.192;9.790;2022-10-17T04:39:50;72.30;;;50.83;;
51298;SDS011;37382;45.192;9.790;2022-10-17T04:42:18;90.13;;;60.85;;
51298;SDS011;37382;45.192;9.790;2022-10-17T04:44:45;93.40;;;59.70;;
51298;SDS011;37382;45.192;9.790;2022-10-17T04:47:15;83.60;;;56.20;;
51298;SDS011;37382;45.192;9.790;2022-10-17T04:49:44;86.07;;;56.03;;
51298;SDS011;37382;45.192;9.790;2022-10-17T04:52:13;82.65;;;56.75;;
51298;SDS011;37382;45.192;9.790;2022-10-17T04:54:47;85.88;;;54.15;;
51298;SDS011;37382;45.192;9.790;2022-10-17T04:57:14;85.88;;;53.60;;
51298;SDS011;37382;45.192;9.790;2022-10-17T04:59:49;96.53;;;53.45;;
51298;SDS011;37382;45.192;9.790;2022-10-17T05:02:23;80.03;;;47.85;;
51298;SDS011;37382;45.192;9.790;2022-10-17T05:04:52;75.03;;;46.72;;
51298;SDS011;37382;45.192;9.790;2022-10-17T05:07:20;69.65;;;48.20;;
51298;SDS011;37382;45.192;9.790;2022-10-17T05:09:57;75.32;;;48.33;;
51298;SDS011;37382;45.192;9.790;2022-10-17T05:12:25;93.30;;;52.53;;
51298;SDS011;37382;45.192;9.790;2022-10-17T05:14:53;103.30;;;61.50;;
51298;SDS011;37382;45.192;9.790;2022-10-17T05:17:23;100.57;;;58.05;;
51298;SDS011;37382;45.192;9.790;2022-10-17T05:19:51;98.18;;;60.70;;
51298;SDS011;37382;45.192;9.790;2022-10-17T05:22:19;88.90;;;59.22;;
51298;SDS011;37382;45.192;9.790;2022-10-17T05:24:47;97.43;;;60.33;;
51298;SDS011;37382;45.192;9.790;2022-10-17T05:27:14;96.18;;;62.30;;
51298;SDS011;37382;45.192;9.790;2022-10-17T05:29:42;91.15;;;61.30;;
51298;SDS011;37382;45.192;9.790;2022-10-17T05:32:18;100.75;;;64.20;;
51298;SDS011;37382;45.192;9.790;2022-10-17T05:34:45;96.10;;;64.88;;
51298;SDS011;37382;45.192;9.790;2022-10-17T05:37:14;105.63;;;66.53;;
51298;SDS011;37382;45.192;9.790;2022-10-17T05:39:46;108.53;;;66.60;;
51298;SDS011;37382;45.192;9.790;2022-10-17T05:42:18;118.20;;;66.97;;
51298;SDS011;37382;45.192;9.790;2022-10-17T05:44:46;134.98;;;70.55;;
51298;SDS011;37382;45.192;9.790;2022-10-17T05:47:16;122.40;;;69.78;;
51298;SDS011;37382;45.192;9.790;2022-10-17T05:49:44;138.75;;;73.45;;
51298;SDS011;37382;45.192;9.790;2022-10-17T05:52:20;134.73;;;70.57;;
51298;SDS011;37382;45.192;9.790;2022-10-17T05:54:59;142.65;;;72.88;;
51298;SDS011;37382;45.192;9.790;2022-10-17T05:57:26;145.80;;;72.75;;
51298;SDS011;37382;45.192;9.790;2022-10-17T05:59:55;193.57;;;82.95;;
51298;SDS011;37382;45.192;9.790;2022-10-17T06:02:23;220.13;;;87.93;;
51298;SDS011;37382;45.192;9.790;2022-10-17T06:04:51;208.73;;;91.72;;
51298;SDS011;37382;45.192;9.790;2022-10-17T06:07:21;218.98;;;93.28;;
51298;SDS011;37382;45.192;9.790;2022-10-17T06:09:49;239.68;;;99.50;;
51298;SDS011;37382;45.192;9.790;2022-10-17T06:12:16;234.13;;;96.78;;
51298;SDS011;37382;45.192;9.790;2022-10-17T06:14:45;249.65;;;95.30;;
51298;SDS011;37382;45.192;9.790;2022-10-17T06:17:14;252.50;;;104.65;;
51298;SDS011;37382;45.192;9.790;2022-10-17T06:19:43;206.07;;;88.20;;
51298;SDS011;37382;45.192;9.790;2022-10-17T06:22:13;212.60;;;88.88;;
51298;SDS011;37382;45.192;9.790;2022-10-17T06:24:41;165.75;;;80.75;;
51298;SDS011;37382;45.192;9.790;2022-10-17T06:27:11;186.13;;;83.15;;
51298;SDS011;37382;45.192;9.790;2022-10-17T06:29:40;202.23;;;84.90;;
51298;SDS011;37382;45.192;9.790;2022-10-17T06:32:08;186.80;;;84.38;;
51298;SDS011;37382;45.192;9.790;2022-10-17T06:34:42;206.70;;;86.07;;
51298;SDS011;37382;45.192;9.790;2022-10-17T06:37:10;211.77;;;88.90;;
51298;SDS011;37382;45.192;9.790;2022-10-17T06:39:39;198.23;;;88.53;;
51298;SDS011;37382;45.192;9.790;2022-10-17T06:42:12;201.95;;;86.97;;
51298;SDS011;37382;45.192;9.790;2022-10-17T06:45:01;209.77;;;91.10;;
51298;SDS011;37382;45.192;9.790;2022-10-17T06:47:41;232.02;;;91.03;;
51298;SDS011;37382;45.192;9.790;2022-10-17T06:50:39;210.80;;;87.47;;
51298;SDS011;37382;45.192;9.790;2022-10-17T06:53:13;223.40;;;90.43;;
51298;SDS011;37382;45.192;9.790;2022-10-17T06:55:50;221.60;;;90.78;;
51298;SDS011;37382;45.192;9.790;2022-10-17T06:58:33;213.20;;;91.82;;
51298;SDS011;37382;45.192;9.790;2022-10-17T07:01:21;205.52;;;90.78;;
51298;SDS011;37382;45.192;9.790;2022-10-17T07:03:54;195.73;;;89.97;;
51298;SDS011;37382;45.192;9.790;2022-10-17T07:06:22;194.60;;;89.68;;
51298;SDS011;37382;45.192;9.790;2022-10-17T07:08:56;179.30;;;82.70;;
51298;SDS011;37382;45.192;9.790;2022-10-17T07:11:27;191.30;;;90.32;;
51298;SDS011;37382;45.192;9.790;2022-10-17T07:13:55;194.70;;;92.80;;
51298;SDS011;37382;45.192;9.790;2022-10-17T07:16:22;223.77;;;94.72;;
51298;SDS011;37382;45.192;9.790;2022-10-17T07:18:58;174.70;;;82.03;;
51298;SDS011;37382;45.192;9.790;2022-10-17T07:21:26;178.57;;;83.25;;
51298;SDS011;37382;45.192;9.790;2022-10-17T07:23:53;170.68;;;84.32;;
51298;SDS011;37382;45.192;9.790;2022-10-17T07:26:21;170.50;;;85.20;;
51298;SDS011;37382;45.192;9.790;2022-10-17T07:28:53;168.77;;;84.95;;
51298;SDS011;37382;45.192;9.790;2022-10-17T07:33:58;192.32;;;83.82;;
51298;SDS011;37382;45.192;9.790;2022-10-17T07:36:27;180.25;;;83.93;;
51298;SDS011;37382;45.192;9.790;2022-10-17T07:38:58;183.98;;;89.95;;
51298;SDS011;37382;45.192;9.790;2022-10-17T07:41:26;174.48;;;83.65;;
51298;SDS011;37382;45.192;9.790;2022-10-17T07:43:54;168.45;;;83.22;;
51298;SDS011;37382;45.192;9.790;2022-10-17T07:46:27;166.32;;;82.68;;
51298;SDS011;37382;45.192;9.790;2022-10-17T07:48:55;173.82;;;84.00;;
51298;SDS011;37382;45.192;9.790;2022-10-17T07:51:22;173.50;;;85.10;;
51298;SDS011;37382;45.192;9.790;2022-10-17T07:53:50;167.18;;;79.25;;
51298;SDS011;37382;45.192;9.790;2022-10-17T07:56:17;161.77;;;80.45;;
51298;SDS011;37382;45.192;9.790;2022-10-17T07:58:45;176.25;;;84.95;;
51298;SDS011;37382;45.192;9.790;2022-10-17T08:01:14;179.80;;;86.03;;
51298;SDS011;37382;45.192;9.790;2022-10-17T08:03:42;169.48;;;83.65;;
51298;SDS011;37382;45.192;9.790;2022-10-17T08:06:11;161.82;;;79.38;;
51298;SDS011;37382;45.192;9.790;2022-10-17T08:08:39;169.73;;;82.50;;
51298;SDS011;37382;45.192;9.790;2022-10-17T08:11:08;194.48;;;88.40;;
51298;SDS011;37382;45.192;9.790;2022-10-17T08:13:37;187.57;;;85.93;;
51298;SDS011;37382;45.192;9.790;2022-10-17T08:16:07;176.63;;;86.47;;
51298;SDS011;37382;45.192;9.790;2022-10-17T08:18:37;191.55;;;90.32;;
51298;SDS011;37382;45.192;9.790;2022-10-17T08:21:05;187.68;;;86.93;;
51298;SDS011;37382;45.192;9.790;2022-10-17T08:23:34;191.48;;;87.22;;
51298;SDS011;37382;45.192;9.790;2022-10-17T08:26:03;193.75;;;89.05;;
51298;SDS011;37382;45.192;9.790;2022-10-17T08:28:33;194.05;;;88.78;;
51298;SDS011;37382;45.192;9.790;2022-10-17T08:31:03;211.73;;;90.40;;
51298;SDS011;37382;45.192;9.790;2022-10-17T08:33:32;206.20;;;91.95;;
51298;SDS011;37382;45.192;9.790;2022-10-17T08:36:00;201.63;;;91.03;;
51298;SDS011;37382;45.192;9.790;2022-10-17T08:38:31;193.85;;;94.38;;
51298;SDS011;37382;45.192;9.790;2022-10-17T08:41:03;201.18;;;90.55;;
51298;SDS011;37382;45.192;9.790;2022-10-17T08:46:45;165.40;;;80.82;;
51298;SDS011;37382;45.192;9.790;2022-10-17T08:49:31;173.07;;;82.63;;
51298;SDS011;37382;45.192;9.790;2022-10-17T08:52:10;161.73;;;81.25;;
51298;SDS011;37382;45.192;9.790;2022-10-17T08:54:51;151.85;;;77.30;;
51298;SDS011;37382;45.192;9.790;2022-10-17T08:57:18;164.40;;;81.95;;
51298;SDS011;37382;45.192;9.790;2022-10-17T08:59:48;166.80;;;80.72;;
51298;SDS011;37382;45.192;9.790;2022-10-17T09:02:24;161.77;;;81.82;;
51298;SDS011;37382;45.192;9.790;2022-10-17T09:10:31;158.70;;;78.72;;
51298;SDS011;37382;45.192;9.790;2022-10-17T09:13:35;147.68;;;75.15;;
51298;SDS011;37382;45.192;9.790;2022-10-17T09:18:38;138.00;;;74.35;;
51298;SDS011;37382;45.192;9.790;2022-10-17T09:23:47;145.20;;;74.30;;
51298;SDS011;37382;45.192;9.790;2022-10-17T09:26:36;151.98;;;74.28;;
51298;SDS011;37382;45.192;9.790;2022-10-17T09:29:11;138.65;;;70.78;;
51298;SDS011;37382;45.192;9.790;2022-10-17T09:31:57;130.55;;;70.28;;
51298;SDS011;37382;45.192;9.790;2022-10-17T09:34:26;120.53;;;67.00;;
51298;SDS011;37382;45.192;9.790;2022-10-17T09:36:57;129.90;;;70.25;;
51298;SDS011;37382;45.192;9.790;2022-10-17T09:39:26;127.82;;;68.90;;
51298;SDS011;37382;45.192;9.790;2022-10-17T09:41:58;129.90;;;70.07;;
51298;SDS011;37382;45.192;9.790;2022-10-17T09:44:42;128.93;;;68.35;;
51298;SDS011;37382;45.192;9.790;2022-10-17T09:49:48;127.38;;;67.07;;
51298;SDS011;37382;45.192;9.790;2022-10-17T09:52:24;115.05;;;67.82;;
51298;SDS011;37382;45.192;9.790;2022-10-17T09:54:58;119.63;;;66.18;;
51298;SDS011;37382;45.192;9.790;2022-10-17T09:57:49;125.82;;;67.22;;
51298;SDS011;37382;45.192;9.790;2022-10-17T10:03:11;122.68;;;66.72;;
51298;SDS011;37382;45.192;9.790;2022-10-17T10:06:02;124.10;;;67.30;;
51298;SDS011;37382;45.192;9.790;2022-10-17T10:08:36;117.07;;;64.90;;
51298;SDS011;37382;45.192;9.790;2022-10-17T10:11:17;107.10;;;61.80;;
51298;SDS011;37382;45.192;9.790;2022-10-17T10:13:49;115.15;;;62.80;;
51298;SDS011;37382;45.192;9.790;2022-10-17T10:18:57;129.38;;;70.13;;
51298;SDS011;37382;45.192;9.790;2022-10-17T10:21:26;125.85;;;69.18;;
51298;SDS011;37382;45.192;9.790;2022-10-17T10:34:55;122.32;;;66.85;;
51298;SDS011;37382;45.192;9.790;2022-10-17T10:37:32;119.57;;;67.53;;
51298;SDS011;37382;45.192;9.790;2022-10-17T10:43:01;112.53;;;65.93;;
51298;SDS011;37382;45.192;9.790;2022-10-17T10:48:26;116.72;;;65.78;;
51298;SDS011;37382;45.192;9.790;2022-10-17T10:53:50;107.18;;;63.40;;
51298;SDS011;37382;45.192;9.790;2022-10-17T10:56:46;110.40;;;63.15;;
51298;SDS011;37382;45.192;9.790;2022-10-17T10:59:21;109.38;;;62.15;;
51298;SDS011;37382;45.192;9.790;2022-10-17T11:04:55;124.57;;;63.42;;
51298;SDS011;37382;45.192;9.790;2022-10-17T11:07:50;118.78;;;63.72;;
51298;SDS011;37382;45.192;9.790;2022-10-17T11:13:23;102.82;;;58.80;;
51298;SDS011;37382;45.192;9.790;2022-10-17T11:15:59;102.65;;;59.85;;
51298;SDS011;37382;45.192;9.790;2022-10-17T11:21:34;106.35;;;61.40;;
51298;SDS011;37382;45.192;9.790;2022-10-17T11:24:36;101.18;;;60.95;;
51298;SDS011;37382;45.192;9.790;2022-10-17T11:27:05;106.85;;;59.50;;
51298;SDS011;37382;45.192;9.790;2022-10-17T11:29:34;100.78;;;59.85;;
51298;SDS011;37382;45.192;9.790;2022-10-17T11:32:17;108.82;;;60.22;;
51298;SDS011;37382;45.192;9.790;2022-10-17T11:34:53;99.82;;;58.47;;
51298;SDS011;37382;45.192;9.790;2022-10-17T11:37:36;101.95;;;58.85;;
51298;SDS011;37382;45.192;9.790;2022-10-17T11:40:54;91.20;;;56.25;;
51298;SDS011;37382;45.192;9.790;2022-10-17T11:43:10;89.13;;;53.72;;
51298;SDS011;37382;45.192;9.790;2022-10-17T11:45:48;98.38;;;54.88;;
51298;SDS011;37382;45.192;9.790;2022-10-17T11:48:29;102.65;;;56.08;;
51298;SDS011;37382;45.192;9.790;2022-10-17T11:51:10;90.28;;;54.15;;
51298;SDS011;37382;45.192;9.790;2022-10-17T11:54:18;89.15;;;55.25;;
51298;SDS011;37382;45.192;9.790;2022-10-17T12:02:48;89.00;;;53.00;;
51298;SDS011;37382;45.192;9.790;2022-10-17T12:08:52;81.03;;;51.33;;
51298;SDS011;37382;45.192;9.790;2022-10-17T12:13:56;83.38;;;53.00;;
51298;SDS011;37382;45.192;9.790;2022-10-17T12:21:54;86.05;;;50.63;;
51298;SDS011;37382;45.192;9.790;2022-10-17T12:27:20;87.55;;;52.63;;
51298;SDS011;37382;45.192;9.790;2022-10-17T12:30:01;93.90;;;54.63;;
51298;SDS011;37382;45.192;9.790;2022-10-17T13:03:39;82.38;;;48.38;;
51298;SDS011;37382;45.192;9.790;2022-10-17T13:06:12;79.43;;;47.70;;
51298;SDS011;37382;45.192;9.790;2022-10-17T13:08:48;82.45;;;48.72;;
51298;SDS011;37382;45.192;9.790;2022-10-17T13:11:31;83.40;;;47.53;;
51298;SDS011;37382;45.192;9.790;2022-10-17T13:14:01;88.47;;;49.50;;
51298;SDS011;37382;45.192;9.790;2022-10-17T13:16:36;74.93;;;46.80;;
51298;SDS011;37382;45.192;9.790;2022-10-17T13:19:15;79.43;;;47.63;;
51298;SDS011;37382;45.192;9.790;2022-10-17T13:22:03;74.45;;;46.10;;
51298;SDS011;37382;45.192;9.790;2022-10-17T13:24:43;73.13;;;45.33;;
51298;SDS011;37382;45.192;9.790;2022-10-17T13:27:27;78.75;;;45.92;;
51298;SDS011;37382;45.192;9.790;2022-10-17T13:29:57;69.47;;;45.10;;
51298;SDS011;37382;45.192;9.790;2022-10-17T13:32:34;68.47;;;42.90;;
51298;SDS011;37382;45.192;9.790;2022-10-17T13:35:05;73.05;;;42.67;;
51298;SDS011;37382;45.192;9.790;2022-10-17T13:37:33;70.60;;;39.30;;
51298;SDS011;37382;45.192;9.790;2022-10-17T13:40:02;64.43;;;36.72;;
51298;SDS011;37382;45.192;9.790;2022-10-17T13:42:51;54.35;;;35.70;;
51298;SDS011;37382;45.192;9.790;2022-10-17T13:47:56;53.80;;;33.47;;
51298;SDS011;37382;45.192;9.790;2022-10-17T13:50:39;54.03;;;34.87;;
51298;SDS011;37382;45.192;9.790;2022-10-17T13:55:48;53.55;;;30.33;;
51298;SDS011;37382;45.192;9.790;2022-10-17T14:01:09;60.45;;;34.10;;
51298;SDS011;37382;45.192;9.790;2022-10-17T14:03:45;55.83;;;32.60;;
51298;SDS011;37382;45.192;9.790;2022-10-17T14:06:19;52.88;;;34.33;;
51298;SDS011;37382;45.192;9.790;2022-10-17T14:11:26;53.88;;;31.85;;
51298;SDS011;37382;45.192;9.790;2022-10-17T14:13:59;50.10;;;30.80;;
51298;SDS011;37382;45.192;9.790;2022-10-17T14:16:36;44.33;;;28.85;;
51298;SDS011;37382;45.192;9.790;2022-10-17T14:19:14;53.90;;;32.88;;
51298;SDS011;37382;45.192;9.790;2022-10-17T14:22:16;47.75;;;29.33;;
51298;SDS011;37382;45.192;9.790;2022-10-17T14:24:50;56.17;;;32.45;;
51298;SDS011;37382;45.192;9.790;2022-10-17T14:27:30;45.72;;;29.27;;
51298;SDS011;37382;45.192;9.790;2022-10-17T14:29:58;50.50;;;29.38;;
51298;SDS011;37382;45.192;9.790;2022-10-17T14:32:30;54.95;;;31.73;;
51298;SDS011;37382;45.192;9.790;2022-10-17T14:35:05;51.95;;;32.97;;
51298;SDS011;37382;45.192;9.790;2022-10-17T14:37:56;50.65;;;31.00;;
51298;SDS011;37382;45.192;9.790;2022-10-17T14:40:25;53.72;;;32.08;;
51298;SDS011;37382;45.192;9.790;2022-10-17T14:42:55;50.55;;;31.08;;
51298;SDS011;37382;45.192;9.790;2022-10-17T14:45:26;61.33;;;33.23;;
51298;SDS011;37382;45.192;9.790;2022-10-17T14:47:59;52.97;;;32.70;;
51298;SDS011;37382;45.192;9.790;2022-10-17T14:50:30;49.20;;;32.42;;
51298;SDS011;37382;45.192;9.790;2022-10-17T14:53:18;48.83;;;33.20;;
51298;SDS011;37382;45.192;9.790;2022-10-17T14:55:54;63.13;;;34.13;;
51298;SDS011;37382;45.192;9.790;2022-10-17T14:58:31;57.03;;;35.60;;
51298;SDS011;37382;45.192;9.790;2022-10-17T15:01:00;49.08;;;34.08;;
51298;SDS011;37382;45.192;9.790;2022-10-17T15:03:28;59.70;;;35.47;;
51298;SDS011;37382;45.192;9.790;2022-10-17T15:05:56;78.28;;;36.35;;
51298;SDS011;37382;45.192;9.790;2022-10-17T15:08:25;59.80;;;34.88;;
51298;SDS011;37382;45.192;9.790;2022-10-17T15:10:52;60.53;;;36.53;;
51298;SDS011;37382;45.192;9.790;2022-10-17T15:13:20;64.72;;;36.80;;
51298;SDS011;37382;45.192;9.790;2022-10-17T15:16:00;60.28;;;35.05;;
51298;SDS011;37382;45.192;9.790;2022-10-17T15:18:27;56.95;;;34.10;;
51298;SDS011;37382;45.192;9.790;2022-10-17T15:20:54;60.50;;;35.00;;
51298;SDS011;37382;45.192;9.790;2022-10-17T15:23:32;60.60;;;34.95;;
51298;SDS011;37382;45.192;9.790;2022-10-17T15:26:00;53.35;;;33.22;;
51298;SDS011;37382;45.192;9.790;2022-10-17T15:28:27;56.58;;;33.75;;
51298;SDS011;37382;45.192;9.790;2022-10-17T15:30:55;64.50;;;34.58;;
51298;SDS011;37382;45.192;9.790;2022-10-17T15:33:23;58.65;;;31.85;;
51298;SDS011;37382;45.192;9.790;2022-10-17T15:35:50;60.13;;;31.15;;
51298;SDS011;37382;45.192;9.790;2022-10-17T15:38:18;62.10;;;32.88;;
51298;SDS011;37382;45.192;9.790;2022-10-17T15:40:46;64.65;;;33.63;;
51298;SDS011;37382;45.192;9.790;2022-10-17T15:43:19;57.03;;;32.45;;
51298;SDS011;37382;45.192;9.790;2022-10-17T15:45:46;69.30;;;32.80;;
51298;SDS011;37382;45.192;9.790;2022-10-17T15:48:16;69.00;;;34.15;;
51298;SDS011;37382;45.192;9.790;2022-10-17T15:50:50;65.05;;;34.55;;
51298;SDS011;37382;45.192;9.790;2022-10-17T15:53:18;58.85;;;33.08;;
51298;SDS011;37382;45.192;9.790;2022-10-17T15:55:45;68.60;;;35.75;;
51298;SDS011;37382;45.192;9.790;2022-10-17T15:58:16;60.63;;;35.60;;
51298;SDS011;37382;45.192;9.790;2022-10-17T16:00:45;61.42;;;36.05;;
51298;SDS011;37382;45.192;9.790;2022-10-17T16:03:15;59.85;;;36.72;;
51298;SDS011;37382;45.192;9.790;2022-10-17T16:05:42;71.75;;;36.90;;
51298;SDS011;37382;45.192;9.790;2022-10-17T16:08:09;64.53;;;37.05;;
51298;SDS011;37382;45.192;9.790;2022-10-17T16:10:37;67.60;;;36.95;;
51298;SDS011;37382;45.192;9.790;2022-10-17T16:13:10;68.00;;;38.85;;
51298;SDS011;37382;45.192;9.790;2022-10-17T16:15:43;70.18;;;38.45;;
51298;SDS011;37382;45.192;9.790;2022-10-17T16:18:11;61.95;;;37.55;;
51298;SDS011;37382;45.192;9.790;2022-10-17T16:20:38;63.25;;;38.63;;
51298;SDS011;37382;45.192;9.790;2022-10-17T16:23:06;64.53;;;40.72;;
51298;SDS011;37382;45.192;9.790;2022-10-17T16:25:34;69.43;;;38.65;;
51298;SDS011;37382;45.192;9.790;2022-10-17T16:28:01;70.18;;;39.90;;
51298;SDS011;37382;45.192;9.790;2022-10-17T16:30:30;73.28;;;40.22;;
51298;SDS011;37382;45.192;9.790;2022-10-17T16:32:58;68.30;;;39.20;;
51298;SDS011;37382;45.192;9.790;2022-10-17T16:35:28;66.45;;;39.83;;
51298;SDS011;37382;45.192;9.790;2022-10-17T16:38:04;75.60;;;39.38;;
51298;SDS011;37382;45.192;9.790;2022-10-17T16:40:32;73.63;;;39.72;;
51298;SDS011;37382;45.192;9.790;2022-10-17T16:43:01;80.63;;;39.47;;
51298;SDS011;37382;45.192;9.790;2022-10-17T16:45:28;79.13;;;40.30;;
51298;SDS011;37382;45.192;9.790;2022-10-17T16:47:56;69.78;;;40.08;;
51298;SDS011;37382;45.192;9.790;2022-10-17T16:50:24;69.15;;;38.30;;
51298;SDS011;37382;45.192;9.790;2022-10-17T16:52:52;72.22;;;40.08;;
51298;SDS011;37382;45.192;9.790;2022-10-17T16:55:19;69.53;;;38.55;;
51298;SDS011;37382;45.192;9.790;2022-10-17T16:57:47;70.43;;;40.40;;
51298;SDS011;37382;45.192;9.790;2022-10-17T17:00:15;81.63;;;41.70;;
51298;SDS011;37382;45.192;9.790;2022-10-17T17:02:46;72.97;;;41.20;;
51298;SDS011;37382;45.192;9.790;2022-10-17T17:05:14;82.57;;;40.22;;
51298;SDS011;37382;45.192;9.790;2022-10-17T17:07:41;78.72;;;41.17;;
51298;SDS011;37382;45.192;9.790;2022-10-17T17:10:09;73.47;;;41.60;;
51298;SDS011;37382;45.192;9.790;2022-10-17T17:12:36;78.80;;;41.75;;
51298;SDS011;37382;45.192;9.790;2022-10-17T17:15:04;75.15;;;40.00;;
51298;SDS011;37382;45.192;9.790;2022-10-17T17:17:32;81.88;;;41.47;;
51298;SDS011;37382;45.192;9.790;2022-10-17T17:20:18;77.97;;;41.83;;
51298;SDS011;37382;45.192;9.790;2022-10-17T17:22:46;74.80;;;41.40;;
51298;SDS011;37382;45.192;9.790;2022-10-17T17:25:14;72.07;;;41.60;;
51298;SDS011;37382;45.192;9.790;2022-10-17T17:27:42;87.13;;;42.42;;
51298;SDS011;37382;45.192;9.790;2022-10-17T17:30:09;81.63;;;41.22;;
51298;SDS011;37382;45.192;9.790;2022-10-17T17:32:37;94.03;;;44.67;;
51298;SDS011;37382;45.192;9.790;2022-10-17T17:35:05;73.22;;;43.15;;
51298;SDS011;37382;45.192;9.790;2022-10-17T17:37:32;95.38;;;42.58;;
51298;SDS011;37382;45.192;9.790;2022-10-17T17:40:00;78.93;;;44.75;;
51298;SDS011;37382;45.192;9.790;2022-10-17T17:42:28;85.35;;;44.25;;
51298;SDS011;37382;45.192;9.790;2022-10-17T17:44:58;90.03;;;43.80;;
51298;SDS011;37382;45.192;9.790;2022-10-17T17:47:27;85.40;;;43.03;;
51298;SDS011;37382;45.192;9.790;2022-10-17T17:49:55;95.13;;;44.13;;
51298;SDS011;37382;45.192;9.790;2022-10-17T17:52:23;89.95;;;43.83;;
51298;SDS011;37382;45.192;9.790;2022-10-17T17:54:50;92.53;;;44.33;;
51298;SDS011;37382;45.192;9.790;2022-10-17T17:57:17;84.53;;;46.13;;
51298;SDS011;37382;45.192;9.790;2022-10-17T17:59:45;99.82;;;45.85;;
51298;SDS011;37382;45.192;9.790;2022-10-17T18:02:14;90.40;;;47.25;;
51298;SDS011;37382;45.192;9.790;2022-10-17T18:04:42;84.38;;;44.60;;
51298;SDS011;37382;45.192;9.790;2022-10-17T18:07:09;100.07;;;44.55;;
51298;SDS011;37382;45.192;9.790;2022-10-17T18:09:36;88.55;;;44.95;;
51298;SDS011;37382;45.192;9.790;2022-10-17T18:12:04;94.18;;;44.15;;
51298;SDS011;37382;45.192;9.790;2022-10-17T18:14:31;106.20;;;47.63;;
51298;SDS011;37382;45.192;9.790;2022-10-17T18:16:59;98.68;;;46.97;;
51298;SDS011;37382;45.192;9.790;2022-10-17T18:19:27;86.60;;;46.25;;
51298;SDS011;37382;45.192;9.790;2022-10-17T18:21:55;88.68;;;46.55;;
51298;SDS011;37382;45.192;9.790;2022-10-17T18:24:23;100.20;;;48.50;;
51298;SDS011;37382;45.192;9.790;2022-10-17T18:26:50;108.47;;;51.53;;
51298;SDS011;37382;45.192;9.790;2022-10-17T18:29:21;86.80;;;47.50;;
51298;SDS011;37382;45.192;9.790;2022-10-17T18:31:49;96.03;;;46.10;;
51298;SDS011;37382;45.192;9.790;2022-10-17T18:34:16;106.82;;;47.58;;
51298;SDS011;37382;45.192;9.790;2022-10-17T18:36:44;114.20;;;49.47;;
51298;SDS011;37382;45.192;9.790;2022-10-17T18:39:11;89.25;;;47.38;;
51298;SDS011;37382;45.192;9.790;2022-10-17T18:41:38;95.38;;;49.35;;
51298;SDS011;37382;45.192;9.790;2022-10-17T18:44:06;101.32;;;49.97;;
51298;SDS011;37382;45.192;9.790;2022-10-17T18:46:34;112.25;;;51.60;;
51298;SDS011;37382;45.192;9.790;2022-10-17T18:49:08;93.38;;;46.50;;
51298;SDS011;37382;45.192;9.790;2022-10-17T18:51:36;98.72;;;49.45;;
51298;SDS011;37382;45.192;9.790;2022-10-17T18:54:06;98.72;;;51.70;;
51298;SDS011;37382;45.192;9.790;2022-10-17T18:56:37;102.63;;;50.42;;
51298;SDS011;37382;45.192;9.790;2022-10-17T18:59:05;96.57;;;50.92;;
51298;SDS011;37382;45.192;9.790;2022-10-17T19:01:32;90.47;;;45.75;;
51298;SDS011;37382;45.192;9.790;2022-10-17T19:04:00;92.57;;;48.55;;
51298;SDS011;37382;45.192;9.790;2022-10-17T19:06:28;86.57;;;49.60;;
51298;SDS011;37382;45.192;9.790;2022-10-17T19:08:58;86.10;;;49.08;;
51298;SDS011;37382;45.192;9.790;2022-10-17T19:11:28;106.68;;;47.20;;
51298;SDS011;37382;45.192;9.790;2022-10-17T19:13:57;84.82;;;47.25;;
51298;SDS011;37382;45.192;9.790;2022-10-17T19:16:31;90.30;;;47.30;;
51298;SDS011;37382;45.192;9.790;2022-10-17T19:19:03;83.65;;;47.17;;
51298;SDS011;37382;45.192;9.790;2022-10-17T19:21:33;85.30;;;47.05;;
51298;SDS011;37382;45.192;9.790;2022-10-17T19:24:02;86.40;;;47.28;;
51298;SDS011;37382;45.192;9.790;2022-10-17T19:26:33;92.22;;;47.42;;
51298;SDS011;37382;45.192;9.790;2022-10-17T19:29:02;101.25;;;48.50;;
51298;SDS011;37382;45.192;9.790;2022-10-17T19:31:31;81.85;;;48.45;;
51298;SDS011;37382;45.192;9.790;2022-10-17T19:34:00;92.05;;;47.50;;
51298;SDS011;37382;45.192;9.790;2022-10-17T19:36:30;91.25;;;46.17;;
51298;SDS011;37382;45.192;9.790;2022-10-17T19:39:01;83.43;;;46.33;;
51298;SDS011;37382;45.192;9.790;2022-10-17T19:41:33;86.07;;;47.72;;
51298;SDS011;37382;45.192;9.790;2022-10-17T19:44:02;83.22;;;46.92;;
51298;SDS011;37382;45.192;9.790;2022-10-17T19:46:29;96.43;;;46.97;;
51298;SDS011;37382;45.192;9.790;2022-10-17T19:48:58;90.15;;;46.15;;
51298;SDS011;37382;45.192;9.790;2022-10-17T19:51:26;89.00;;;46.78;;
51298;SDS011;37382;45.192;9.790;2022-10-17T19:53:55;83.60;;;45.67;;
51298;SDS011;37382;45.192;9.790;2022-10-17T19:56:27;130.05;;;75.95;;
51298;SDS011;37382;45.192;9.790;2022-10-17T19:58:56;119.65;;;72.65;;
51298;SDS011;37382;45.192;9.790;2022-10-17T20:01:26;127.80;;;65.68;;
51298;SDS011;37382;45.192;9.790;2022-10-17T20:03:55;97.28;;;56.45;;
51298;SDS011;37382;45.192;9.790;2022-10-17T20:06:23;88.97;;;51.90;;
51298;SDS011;37382;45.192;9.790;2022-10-17T20:08:51;100.75;;;53.05;;
51298;SDS011;37382;45.192;9.790;2022-10-17T20:11:21;102.07;;;54.15;;
51298;SDS011;37382;45.192;9.790;2022-10-17T20:13:50;88.75;;;49.50;;
51298;SDS011;37382;45.192;9.790;2022-10-17T20:16:19;95.47;;;47.95;;
51298;SDS011;37382;45.192;9.790;2022-10-17T20:18:49;87.15;;;48.15;;
51298;SDS011;37382;45.192;9.790;2022-10-17T20:21:20;96.05;;;50.03;;
51298;SDS011;37382;45.192;9.790;2022-10-17T20:23:49;102.63;;;57.33;;
51298;SDS011;37382;45.192;9.790;2022-10-17T20:26:18;120.07;;;68.93;;
51298;SDS011;37382;45.192;9.790;2022-10-17T20:29:04;101.25;;;57.03;;
51298;SDS011;37382;45.192;9.790;2022-10-17T20:34:02;99.30;;;56.72;;
51298;SDS011;37382;45.192;9.790;2022-10-17T20:36:30;83.63;;;46.88;;
51298;SDS011;37382;45.192;9.790;2022-10-17T20:39:02;76.10;;;47.08;;
51298;SDS011;37382;45.192;9.790;2022-10-17T20:41:30;87.07;;;47.67;;
51298;SDS011;37382;45.192;9.790;2022-10-17T20:43:58;91.78;;;47.63;;
51298;SDS011;37382;45.192;9.790;2022-10-17T20:46:26;86.43;;;48.78;;
51298;SDS011;37382;45.192;9.790;2022-10-17T20:49:04;86.93;;;47.13;;
51298;SDS011;37382;45.192;9.790;2022-10-17T20:51:34;88.90;;;47.28;;